createdAt,value
2023-04-07T00:11:09.342Z,91.62
2023-04-07T00:26:09.029Z,95.19
2023-04-07T00:41:09.501Z,97.03
2023-04-07T00:56:09.210Z,97.92
2023-04-07T01:11:09.360Z,98.23
2023-04-07T01:26:09.549Z,95.29
2023-04-07T01:41:09.974Z,89.96
2023-04-07T01:56:09.636Z,89.22
2023-04-07T02:11:09.786Z,85.90
2023-04-07T02:26:09.884Z,86.00
2023-04-07T02:41:09.961Z,85.02
2023-04-07T02:56:10.887Z,87.12
2023-04-07T03:11:11.573Z,88.82
2023-04-07T03:26:12.330Z,94.56
2023-04-07T03:41:12.682Z,96.91
2023-04-07T03:56:13.310Z,97.81
2023-04-07T04:11:14.017Z,98.08
2023-04-07T04:26:14.626Z,97.93
2023-04-07T04:41:15.276Z,99.99
2023-04-07T04:56:15.837Z,99.99
2023-04-07T05:11:15.972Z,99.99
2023-04-07T05:26:16.684Z,99.99
2023-04-07T05:41:17.922Z,99.99
2023-04-07T05:56:18.437Z,99.99
2023-04-07T06:11:18.531Z,99.99
2023-04-07T06:26:18.685Z,98.94
2023-04-07T06:41:18.888Z,98.85
2023-04-07T06:56:19.403Z,94.98
2023-04-07T07:11:20.198Z,86.85
2023-04-07T07:26:20.222Z,80.11
2023-04-07T07:41:20.800Z,75.12
2023-04-07T07:56:21.554Z,74.91
2023-04-07T08:11:21.513Z,73.68
2023-04-07T08:26:22.218Z,69.44
2023-04-07T08:41:22.820Z,70.62
2023-04-07T08:56:22.789Z,66.80
2023-04-07T09:11:22.995Z,69.04
2023-04-07T09:26:23.526Z,70.07
2023-04-07T09:41:24.143Z,70.24
2023-04-07T09:56:24.590Z,72.23
2023-04-07T10:11:24.441Z,72.81
2023-04-07T10:26:24.653Z,78.79
2023-04-07T10:41:24.540Z,84.70
2023-04-07T10:56:24.668Z,94.18
2023-04-07T11:11:25.403Z,99.99
2023-04-07T11:26:26.052Z,99.63
2023-04-07T11:41:26.232Z,98.65
2023-04-07T11:56:26.534Z,93.90
2023-04-07T12:11:26.503Z,92.72
2023-04-07T12:26:26.915Z,92.72
2023-04-07T12:41:27.714Z,92.97
2023-04-07T12:56:27.803Z,96.27
2023-04-07T13:11:27.798Z,91.52
2023-04-07T13:26:28.451Z,94.35
2023-04-07T13:41:29.063Z,95.24
2023-04-07T13:56:30.602Z,93.71
2023-04-07T14:11:30.284Z,97.67
2023-04-07T14:26:30.602Z,95.24
2023-04-07T14:41:31.060Z,91.77
2023-04-07T14:56:32.099Z,92.08
2023-04-07T15:11:33.041Z,90.64
2023-04-07T15:26:32.940Z,89.65
2023-04-07T15:41:33.090Z,84.89
2023-04-07T15:56:33.541Z,81.11
2023-04-07T16:11:34.497Z,78.84
2023-04-07T16:26:41.696Z,75.95
2023-04-07T16:41:41.947Z,72.74
2023-04-07T16:56:43.045Z,66.99
2023-04-07T17:11:44.015Z,62.13
2023-04-07T17:26:43.888Z,57.68
2023-04-07T17:41:43.895Z,55.41
2023-04-07T17:56:44.006Z,52.02
2023-04-07T18:11:44.484Z,50.08
2023-04-07T18:26:44.215Z,47.91
2023-04-07T18:41:44.301Z,46.04
2023-04-07T18:56:44.514Z,44.70
2023-04-07T19:11:44.550Z,41.84
2023-04-07T19:26:44.828Z,39.73
2023-04-07T19:41:47.240Z,37.90
2023-04-07T19:56:47.459Z,37.37
2023-04-07T20:11:47.998Z,37.07
2023-04-07T20:26:48.675Z,37.16
2023-04-07T20:41:49.681Z,36.35
2023-04-07T20:56:49.975Z,35.21
2023-04-07T21:11:49.972Z,35.31
2023-04-07T21:26:50.593Z,35.40
2023-04-07T21:41:51.258Z,33.86
2023-04-07T21:56:51.937Z,33.02
2023-04-07T22:11:53.734Z,33.44
2023-04-07T22:26:53.588Z,32.29
2023-04-07T22:41:53.779Z,31.37
2023-04-07T22:56:54.758Z,31.68
2023-04-07T23:11:54.573Z,31.37
2023-04-07T23:26:55.015Z,31.04
2023-04-07T23:41:55.562Z,30.33
2023-04-07T23:56:55.812Z,30.64
